sensor_id;sensor_type;location;lat;lon;timestamp;P1;durP1;ratioP1;P2;durP2;ratioP2
15814;SDS011;8008;50.024;8.172;2022-09-09T03:01:49;3.15;;;1.70;;
15814;SDS011;8008;50.024;8.172;2022-09-09T03:04:18;3.00;;;1.65;;
15814;SDS011;8008;50.024;8.172;2022-09-09T03:06:48;2.63;;;1.52;;
15814;SDS011;8008;50.024;8.172;2022-09-09T03:09:18;2.78;;;1.60;;
15814;SDS011;8008;50.024;8.172;2022-09-09T03:11:48;2.10;;;1.60;;
15814;SDS011;8008;50.024;8.172;2022-09-09T03:14:17;2.38;;;1.75;;
15814;SDS011;8008;50.024;8.172;2022-09-09T03:16:47;3.65;;;1.90;;
15814;SDS011;8008;50.024;8.172;2022-09-09T03:19:17;3.00;;;1.90;;
15814;SDS011;8008;50.024;8.172;2022-09-09T03:21:46;2.70;;;1.67;;
15814;SDS011;8008;50.024;8.172;2022-09-09T03:24:15;1.92;;;1.48;;
15814;SDS011;8008;50.024;8.172;2022-09-09T03:26:43;3.60;;;1.80;;
15814;SDS011;8008;50.024;8.172;2022-09-09T03:29:15;3.85;;;1.58;;
15814;SDS011;8008;50.024;8.172;2022-09-09T03:31:44;2.75;;;1.55;;
15814;SDS011;8008;50.024;8.172;2022-09-09T03:34:14;3.20;;;1.63;;
15814;SDS011;8008;50.024;8.172;2022-09-09T03:36:42;2.15;;;1.50;;
15814;SDS011;8008;50.024;8.172;2022-09-09T03:39:10;3.63;;;1.70;;
15814;SDS011;8008;50.024;8.172;2022-09-09T03:41:40;4.70;;;1.83;;
15814;SDS011;8008;50.024;8.172;2022-09-09T03:44:11;4.97;;;1.90;;
15814;SDS011;8008;50.024;8.172;2022-09-09T03:46:41;2.78;;;1.60;;
15814;SDS011;8008;50.024;8.172;2022-09-09T03:49:09;5.53;;;1.80;;
15814;SDS011;8008;50.024;8.172;2022-09-09T03:51:38;3.05;;;1.70;;
15814;SDS011;8008;50.024;8.172;2022-09-09T03:54:07;3.40;;;1.75;;
15814;SDS011;8008;50.024;8.172;2022-09-09T03:56:36;3.13;;;1.90;;
15814;SDS011;8008;50.024;8.172;2022-09-09T03:59:05;2.53;;;1.60;;
15814;SDS011;8008;50.024;8.172;2022-09-09T04:01:35;3.33;;;2.10;;
15814;SDS011;8008;50.024;8.172;2022-09-09T04:04:02;2.15;;;1.70;;
15814;SDS011;8008;50.024;8.172;2022-09-09T04:06:30;3.22;;;1.70;;
15814;SDS011;8008;50.024;8.172;2022-09-09T04:09:00;1.98;;;1.60;;
15814;SDS011;8008;50.024;8.172;2022-09-09T04:11:30;3.55;;;1.58;;
15814;SDS011;8008;50.024;8.172;2022-09-09T04:13:59;1.55;;;1.45;;
15814;SDS011;8008;50.024;8.172;2022-09-09T04:16:28;3.45;;;1.40;;
15814;SDS011;8008;50.024;8.172;2022-09-09T04:18:56;1.63;;;1.48;;
15814;SDS011;8008;50.024;8.172;2022-09-09T04:21:24;2.70;;;1.50;;
15814;SDS011;8008;50.024;8.172;2022-09-09T04:23:53;3.25;;;1.40;;
15814;SDS011;8008;50.024;8.172;2022-09-09T04:26:23;3.13;;;1.52;;
15814;SDS011;8008;50.024;8.172;2022-09-09T04:28:51;2.95;;;1.40;;
15814;SDS011;8008;50.024;8.172;2022-09-09T04:31:22;3.60;;;1.58;;
15814;SDS011;8008;50.024;8.172;2022-09-09T04:33:53;2.72;;;1.70;;
15814;SDS011;8008;50.024;8.172;2022-09-09T04:36:21;4.43;;;2.13;;
15814;SDS011;8008;50.024;8.172;2022-09-09T04:38:53;3.35;;;1.75;;
15814;SDS011;8008;50.024;8.172;2022-09-09T04:41:21;4.57;;;1.80;;
15814;SDS011;8008;50.024;8.172;2022-09-09T04:43:52;2.22;;;1.80;;
15814;SDS011;8008;50.024;8.172;2022-09-09T04:46:21;3.50;;;1.80;;
15814;SDS011;8008;50.024;8.172;2022-09-09T04:48:50;2.92;;;1.70;;
15814;SDS011;8008;50.024;8.172;2022-09-09T04:51:18;3.45;;;1.85;;
15814;SDS011;8008;50.024;8.172;2022-09-09T04:53:48;2.67;;;1.70;;
15814;SDS011;8008;50.024;8.172;2022-09-09T04:56:18;2.55;;;1.90;;
15814;SDS011;8008;50.024;8.172;2022-09-09T04:58:53;2.22;;;1.58;;
15814;SDS011;8008;50.024;8.172;2022-09-09T05:01:27;2.28;;;1.58;;
15814;SDS011;8008;50.024;8.172;2022-09-09T05:04:01;4.60;;;1.70;;
15814;SDS011;8008;50.024;8.172;2022-09-09T05:06:31;1.58;;;1.40;;
15814;SDS011;8008;50.024;8.172;2022-09-09T05:09:00;4.32;;;1.70;;
15814;SDS011;8008;50.024;8.172;2022-09-09T05:11:29;2.83;;;1.20;;
15814;SDS011;8008;50.024;8.172;2022-09-09T05:14:22;1.77;;;1.30;;
15814;SDS011;8008;50.024;8.172;2022-09-09T05:16:54;3.33;;;1.38;;
15814;SDS011;8008;50.024;8.172;2022-09-09T05:19:30;3.85;;;1.27;;
15814;SDS011;8008;50.024;8.172;2022-09-09T05:21:58;2.30;;;1.30;;
15814;SDS011;8008;50.024;8.172;2022-09-09T05:24:35;3.35;;;1.30;;
15814;SDS011;8008;50.024;8.172;2022-09-09T05:27:03;2.38;;;1.48;;
15814;SDS011;8008;50.024;8.172;2022-09-09T05:29:33;1.73;;;1.30;;
15814;SDS011;8008;50.024;8.172;2022-09-09T05:32:06;1.58;;;1.30;;
15814;SDS011;8008;50.024;8.172;2022-09-09T05:34:40;2.42;;;1.40;;
15814;SDS011;8008;50.024;8.172;2022-09-09T05:37:08;3.30;;;1.40;;
15814;SDS011;8008;50.024;8.172;2022-09-09T05:39:36;3.67;;;1.20;;
15814;SDS011;8008;50.024;8.172;2022-09-09T05:42:05;3.03;;;1.42;;
15814;SDS011;8008;50.024;8.172;2022-09-09T05:44:34;2.55;;;1.23;;
15814;SDS011;8008;50.024;8.172;2022-09-09T05:47:03;4.90;;;1.48;;
15814;SDS011;8008;50.024;8.172;2022-09-09T05:49:33;2.60;;;1.17;;
15814;SDS011;8008;50.024;8.172;2022-09-09T05:52:03;3.78;;;1.35;;
15814;SDS011;8008;50.024;8.172;2022-09-09T05:54:35;4.13;;;1.40;;
15814;SDS011;8008;50.024;8.172;2022-09-09T05:57:05;3.08;;;1.60;;
15814;SDS011;8008;50.024;8.172;2022-09-09T05:59:35;3.03;;;1.50;;
15814;SDS011;8008;50.024;8.172;2022-09-09T06:05:06;6.35;;;1.58;;
15814;SDS011;8008;50.024;8.172;2022-09-09T06:07:35;2.42;;;1.50;;
15814;SDS011;8008;50.024;8.172;2022-09-09T06:10:04;3.72;;;1.20;;
15814;SDS011;8008;50.024;8.172;2022-09-09T06:12:33;3.35;;;1.38;;
15814;SDS011;8008;50.024;8.172;2022-09-09T06:15:04;5.25;;;1.30;;
15814;SDS011;8008;50.024;8.172;2022-09-09T06:17:33;3.45;;;1.27;;
15814;SDS011;8008;50.024;8.172;2022-09-09T06:20:02;3.13;;;1.42;;
15814;SDS011;8008;50.024;8.172;2022-09-09T06:22:32;2.33;;;1.20;;
15814;SDS011;8008;50.024;8.172;2022-09-09T06:25:03;4.10;;;1.40;;
15814;SDS011;8008;50.024;8.172;2022-09-09T06:27:32;2.42;;;1.38;;
15814;SDS011;8008;50.024;8.172;2022-09-09T06:32:35;2.03;;;1.10;;
15814;SDS011;8008;50.024;8.172;2022-09-09T06:35:11;2.72;;;1.30;;
15814;SDS011;8008;50.024;8.172;2022-09-09T06:37:44;1.60;;;1.10;;
15814;SDS011;8008;50.024;8.172;2022-09-09T06:40:21;3.40;;;1.00;;
15814;SDS011;8008;50.024;8.172;2022-09-09T06:42:49;1.27;;;1.10;;
15814;SDS011;8008;50.024;8.172;2022-09-09T06:45:24;2.95;;;1.20;;
15814;SDS011;8008;50.024;8.172;2022-09-09T06:47:56;1.48;;;0.98;;
15814;SDS011;8008;50.024;8.172;2022-09-09T06:50:24;1.15;;;1.05;;
15814;SDS011;8008;50.024;8.172;2022-09-09T06:52:56;2.95;;;1.23;;
15814;SDS011;8008;50.024;8.172;2022-09-09T06:55:28;2.65;;;1.20;;
15814;SDS011;8008;50.024;8.172;2022-09-09T07:00:46;2.42;;;1.20;;
15814;SDS011;8008;50.024;8.172;2022-09-09T07:03:14;2.35;;;1.15;;
15814;SDS011;8008;50.024;8.172;2022-09-09T07:05:43;3.35;;;1.50;;
15814;SDS011;8008;50.024;8.172;2022-09-09T07:08:17;2.00;;;1.27;;
15814;SDS011;8008;50.024;8.172;2022-09-09T07:10:47;3.83;;;1.40;;
15814;SDS011;8008;50.024;8.172;2022-09-09T07:13:15;5.07;;;1.40;;
15814;SDS011;8008;50.024;8.172;2022-09-09T07:15:43;2.95;;;1.48;;
15814;SDS011;8008;50.024;8.172;2022-09-09T07:18:13;2.92;;;1.42;;
15814;SDS011;8008;50.024;8.172;2022-09-09T07:20:42;2.53;;;1.35;;
15814;SDS011;8008;50.024;8.172;2022-09-09T07:23:10;3.83;;;1.67;;
15814;SDS011;8008;50.024;8.172;2022-09-09T07:25:38;2.25;;;1.38;;
15814;SDS011;8008;50.024;8.172;2022-09-09T07:28:12;1.33;;;1.23;;
15814;SDS011;8008;50.024;8.172;2022-09-09T07:30:40;3.97;;;1.60;;
15814;SDS011;8008;50.024;8.172;2022-09-09T07:33:09;5.05;;;1.90;;
15814;SDS011;8008;50.024;8.172;2022-09-09T07:35:38;6.05;;;2.10;;
15814;SDS011;8008;50.024;8.172;2022-09-09T07:38:06;6.22;;;2.00;;
15814;SDS011;8008;50.024;8.172;2022-09-09T07:40:35;5.15;;;2.05;;
15814;SDS011;8008;50.024;8.172;2022-09-09T07:43:04;5.60;;;2.20;;
15814;SDS011;8008;50.024;8.172;2022-09-09T07:45:33;3.53;;;2.20;;
15814;SDS011;8008;50.024;8.172;2022-09-09T07:48:02;3.00;;;1.95;;
15814;SDS011;8008;50.024;8.172;2022-09-09T07:50:31;6.93;;;2.40;;
15814;SDS011;8008;50.024;8.172;2022-09-09T07:53:00;4.63;;;2.25;;
15814;SDS011;8008;50.024;8.172;2022-09-09T07:55:28;4.43;;;2.40;;
15814;SDS011;8008;50.024;8.172;2022-09-09T07:57:57;5.05;;;2.35;;
15814;SDS011;8008;50.024;8.172;2022-09-09T08:00:25;4.55;;;2.20;;
15814;SDS011;8008;50.024;8.172;2022-09-09T08:02:55;5.60;;;2.22;;
15814;SDS011;8008;50.024;8.172;2022-09-09T08:05:23;5.20;;;2.10;;
15814;SDS011;8008;50.024;8.172;2022-09-09T08:07:52;4.05;;;2.33;;
15814;SDS011;8008;50.024;8.172;2022-09-09T08:10:22;3.83;;;2.20;;
15814;SDS011;8008;50.024;8.172;2022-09-09T08:12:52;5.10;;;2.38;;
15814;SDS011;8008;50.024;8.172;2022-09-09T08:15:41;4.75;;;2.30;;
15814;SDS011;8008;50.024;8.172;2022-09-09T08:18:10;3.33;;;2.15;;
15814;SDS011;8008;50.024;8.172;2022-09-09T08:20:38;5.07;;;2.28;;
15814;SDS011;8008;50.024;8.172;2022-09-09T08:23:06;6.40;;;2.38;;
15814;SDS011;8008;50.024;8.172;2022-09-09T08:25:35;4.70;;;2.17;;
15814;SDS011;8008;50.024;8.172;2022-09-09T08:28:03;7.10;;;2.30;;
15814;SDS011;8008;50.024;8.172;2022-09-09T08:30:31;4.90;;;2.28;;
15814;SDS011;8008;50.024;8.172;2022-09-09T08:33:00;3.38;;;1.83;;
15814;SDS011;8008;50.024;8.172;2022-09-09T08:35:28;4.47;;;2.10;;
15814;SDS011;8008;50.024;8.172;2022-09-09T08:37:58;4.72;;;2.10;;
15814;SDS011;8008;50.024;8.172;2022-09-09T08:40:28;3.35;;;2.10;;
15814;SDS011;8008;50.024;8.172;2022-09-09T08:43:02;4.43;;;2.20;;
15814;SDS011;8008;50.024;8.172;2022-09-09T08:45:33;6.10;;;2.30;;
15814;SDS011;8008;50.024;8.172;2022-09-09T08:48:10;4.15;;;2.50;;
15814;SDS011;8008;50.024;8.172;2022-09-09T08:50:45;3.63;;;2.20;;
15814;SDS011;8008;50.024;8.172;2022-09-09T08:53:21;4.05;;;2.38;;
15814;SDS011;8008;50.024;8.172;2022-09-09T08:55:53;4.95;;;2.30;;
15814;SDS011;8008;50.024;8.172;2022-09-09T08:58:34;3.55;;;1.90;;
15814;SDS011;8008;50.024;8.172;2022-09-09T09:01:17;4.53;;;1.67;;
15814;SDS011;8008;50.024;8.172;2022-09-09T09:03:57;4.88;;;1.60;;
15814;SDS011;8008;50.024;8.172;2022-09-09T09:06:37;4.45;;;1.77;;
15814;SDS011;8008;50.024;8.172;2022-09-09T09:09:14;5.07;;;1.63;;
15814;SDS011;8008;50.024;8.172;2022-09-09T09:11:46;4.68;;;1.67;;
15814;SDS011;8008;50.024;8.172;2022-09-09T09:14:18;4.03;;;1.52;;
15814;SDS011;8008;50.024;8.172;2022-09-09T09:16:52;3.85;;;1.55;;
15814;SDS011;8008;50.024;8.172;2022-09-09T09:19:24;4.57;;;1.50;;
15814;SDS011;8008;50.024;8.172;2022-09-09T09:21:57;6.78;;;1.70;;
15814;SDS011;8008;50.024;8.172;2022-09-09T09:24:33;3.47;;;1.70;;
15814;SDS011;8008;50.024;8.172;2022-09-09T09:27:11;3.75;;;2.00;;
15814;SDS011;8008;50.024;8.172;2022-09-09T09:29:46;3.70;;;1.80;;
15814;SDS011;8008;50.024;8.172;2022-09-09T09:32:38;4.47;;;1.90;;
15814;SDS011;8008;50.024;8.172;2022-09-09T09:35:10;4.28;;;1.77;;
15814;SDS011;8008;50.024;8.172;2022-09-09T09:37:41;4.78;;;1.73;;
15814;SDS011;8008;50.024;8.172;2022-09-09T09:40:33;4.72;;;1.77;;
15814;SDS011;8008;50.024;8.172;2022-09-09T09:43:01;5.13;;;1.88;;
15814;SDS011;8008;50.024;8.172;2022-09-09T09:45:40;5.00;;;2.20;;
15814;SDS011;8008;50.024;8.172;2022-09-09T09:48:26;2.03;;;1.60;;
15814;SDS011;8008;50.024;8.172;2022-09-09T09:50:55;3.83;;;1.90;;
15814;SDS011;8008;50.024;8.172;2022-09-09T09:53:27;3.47;;;1.85;;
15814;SDS011;8008;50.024;8.172;2022-09-09T09:55:58;4.47;;;1.70;;
15814;SDS011;8008;50.024;8.172;2022-09-09T09:58:29;4.50;;;1.80;;
15814;SDS011;8008;50.024;8.172;2022-09-09T10:01:02;3.20;;;1.73;;
15814;SDS011;8008;50.024;8.172;2022-09-09T10:03:31;4.35;;;1.90;;
15814;SDS011;8008;50.024;8.172;2022-09-09T10:06:04;5.22;;;2.20;;
15814;SDS011;8008;50.024;8.172;2022-09-09T10:08:33;3.33;;;2.05;;
15814;SDS011;8008;50.024;8.172;2022-09-09T10:11:22;4.00;;;2.08;;
15814;SDS011;8008;50.024;8.172;2022-09-09T10:14:00;4.47;;;1.60;;
15814;SDS011;8008;50.024;8.172;2022-09-09T10:16:44;5.05;;;1.90;;
15814;SDS011;8008;50.024;8.172;2022-09-09T10:19:26;4.82;;;1.42;;
15814;SDS011;8008;50.024;8.172;2022-09-09T10:22:02;4.40;;;1.60;;
15814;SDS011;8008;50.024;8.172;2022-09-09T10:24:48;3.75;;;1.50;;
15814;SDS011;8008;50.024;8.172;2022-09-09T10:27:38;3.70;;;1.40;;
15814;SDS011;8008;50.024;8.172;2022-09-09T10:30:14;2.22;;;1.20;;
15814;SDS011;8008;50.024;8.172;2022-09-09T10:32:47;4.10;;;1.13;;
15814;SDS011;8008;50.024;8.172;2022-09-09T10:35:22;2.53;;;1.38;;
15814;SDS011;8008;50.024;8.172;2022-09-09T10:37:58;3.90;;;1.30;;
15814;SDS011;8008;50.024;8.172;2022-09-09T10:40:38;5.25;;;1.30;;
15814;SDS011;8008;50.024;8.172;2022-09-09T10:43:13;2.45;;;1.30;;
15814;SDS011;8008;50.024;8.172;2022-09-09T10:45:55;7.25;;;1.63;;
15814;SDS011;8008;50.024;8.172;2022-09-09T10:48:34;2.03;;;1.13;;
15814;SDS011;8008;50.024;8.172;2022-09-09T10:51:17;5.30;;;1.33;;
15814;SDS011;8008;50.024;8.172;2022-09-09T10:54:01;4.32;;;1.35;;
15814;SDS011;8008;50.024;8.172;2022-09-09T10:56:41;2.83;;;1.38;;
15814;SDS011;8008;50.024;8.172;2022-09-09T10:59:13;6.32;;;1.15;;
15814;SDS011;8008;50.024;8.172;2022-09-09T11:01:47;4.28;;;1.25;;
15814;SDS011;8008;50.024;8.172;2022-09-09T11:04:21;4.13;;;1.02;;
15814;SDS011;8008;50.024;8.172;2022-09-09T11:06:52;3.20;;;1.35;;
15814;SDS011;8008;50.024;8.172;2022-09-09T11:09:23;3.25;;;1.08;;
15814;SDS011;8008;50.024;8.172;2022-09-09T11:11:56;2.25;;;1.00;;
15814;SDS011;8008;50.024;8.172;2022-09-09T11:14:26;4.38;;;1.25;;
15814;SDS011;8008;50.024;8.172;2022-09-09T11:17:03;3.47;;;1.10;;
15814;SDS011;8008;50.024;8.172;2022-09-09T11:19:39;4.50;;;1.25;;
15814;SDS011;8008;50.024;8.172;2022-09-09T11:22:14;2.50;;;1.15;;
15814;SDS011;8008;50.024;8.172;2022-09-09T11:24:50;5.90;;;1.30;;
15814;SDS011;8008;50.024;8.172;2022-09-09T11:27:21;4.70;;;1.23;;
15814;SDS011;8008;50.024;8.172;2022-09-09T11:30:04;2.88;;;1.30;;
15814;SDS011;8008;50.024;8.172;2022-09-09T11:33:25;3.25;;;1.10;;
15814;SDS011;8008;50.024;8.172;2022-09-09T11:39:18;3.28;;;1.13;;
15814;SDS011;8008;50.024;8.172;2022-09-09T11:42:07;2.35;;;0.90;;
15814;SDS011;8008;50.024;8.172;2022-09-09T11:44:42;2.97;;;1.15;;
15814;SDS011;8008;50.024;8.172;2022-09-09T11:47:16;7.38;;;1.30;;
15814;SDS011;8008;50.024;8.172;2022-09-09T11:49:47;4.90;;;1.23;;
15814;SDS011;8008;50.024;8.172;2022-09-09T11:52:22;4.32;;;1.13;;
15814;SDS011;8008;50.024;8.172;2022-09-09T11:54:54;3.45;;;1.30;;
15814;SDS011;8008;50.024;8.172;2022-09-09T11:57:24;3.22;;;1.30;;
15814;SDS011;8008;50.024;8.172;2022-09-09T11:59:55;3.35;;;1.20;;
15814;SDS011;8008;50.024;8.172;2022-09-09T12:02:23;3.58;;;1.30;;
15814;SDS011;8008;50.024;8.172;2022-09-09T12:04:57;3.45;;;1.20;;
15814;SDS011;8008;50.024;8.172;2022-09-09T12:07:33;4.28;;;1.25;;
15814;SDS011;8008;50.024;8.172;2022-09-09T12:10:05;5.25;;;1.70;;
15814;SDS011;8008;50.024;8.172;2022-09-09T12:12:49;3.95;;;1.27;;
15814;SDS011;8008;50.024;8.172;2022-09-09T12:15:19;2.63;;;1.23;;
15814;SDS011;8008;50.024;8.172;2022-09-09T12:17:54;5.85;;;1.50;;
15814;SDS011;8008;50.024;8.172;2022-09-09T12:20:31;4.88;;;1.30;;
15814;SDS011;8008;50.024;8.172;2022-09-09T12:23:13;4.40;;;1.20;;
15814;SDS011;8008;50.024;8.172;2022-09-09T12:26:07;3.90;;;1.40;;
15814;SDS011;8008;50.024;8.172;2022-09-09T12:28:50;4.95;;;1.20;;
15814;SDS011;8008;50.024;8.172;2022-09-09T12:31:24;2.85;;;0.88;;
15814;SDS011;8008;50.024;8.172;2022-09-09T12:34:02;1.08;;;0.80;;
15814;SDS011;8008;50.024;8.172;2022-09-09T12:36:36;1.05;;;0.68;;
15814;SDS011;8008;50.024;8.172;2022-09-09T12:39:15;1.48;;;0.85;;
15814;SDS011;8008;50.024;8.172;2022-09-09T12:41:50;1.95;;;0.80;;
15814;SDS011;8008;50.024;8.172;2022-09-09T12:44:23;1.33;;;0.80;;
15814;SDS011;8008;50.024;8.172;2022-09-09T12:46:54;3.63;;;1.00;;
15814;SDS011;8008;50.024;8.172;2022-09-09T12:49:29;1.55;;;0.93;;
15814;SDS011;8008;50.024;8.172;2022-09-09T12:52:03;1.90;;;1.00;;
15814;SDS011;8008;50.024;8.172;2022-09-09T12:54:35;2.20;;;0.93;;
15814;SDS011;8008;50.024;8.172;2022-09-09T12:57:04;2.08;;;1.02;;
15814;SDS011;8008;50.024;8.172;2022-09-09T12:59:36;2.53;;;1.10;;
15814;SDS011;8008;50.024;8.172;2022-09-09T13:02:11;2.75;;;1.00;;
15814;SDS011;8008;50.024;8.172;2022-09-09T13:04:46;2.47;;;0.80;;
15814;SDS011;8008;50.024;8.172;2022-09-09T13:07:16;3.47;;;1.00;;
15814;SDS011;8008;50.024;8.172;2022-09-09T13:09:46;4.65;;;0.90;;
15814;SDS011;8008;50.024;8.172;2022-09-09T13:12:16;2.42;;;1.13;;
15814;SDS011;8008;50.024;8.172;2022-09-09T13:14:47;2.85;;;1.00;;
15814;SDS011;8008;50.024;8.172;2022-09-09T13:17:20;3.13;;;0.90;;
15814;SDS011;8008;50.024;8.172;2022-09-09T13:19:49;3.88;;;0.85;;
15814;SDS011;8008;50.024;8.172;2022-09-09T13:22:20;1.95;;;1.00;;
15814;SDS011;8008;50.024;8.172;2022-09-09T13:24:59;2.22;;;0.82;;
15814;SDS011;8008;50.024;8.172;2022-09-09T13:27:30;2.55;;;0.90;;
15814;SDS011;8008;50.024;8.172;2022-09-09T13:30:00;1.70;;;0.73;;
15814;SDS011;8008;50.024;8.172;2022-09-09T13:32:28;1.98;;;0.80;;
15814;SDS011;8008;50.024;8.172;2022-09-09T13:34:57;3.08;;;1.40;;
15814;SDS011;8008;50.024;8.172;2022-09-09T13:37:28;2.35;;;0.95;;
15814;SDS011;8008;50.024;8.172;2022-09-09T13:40:03;3.55;;;1.00;;
15814;SDS011;8008;50.024;8.172;2022-09-09T13:42:33;1.92;;;0.80;;
15814;SDS011;8008;50.024;8.172;2022-09-09T13:45:05;2.17;;;1.00;;
15814;SDS011;8008;50.024;8.172;2022-09-09T13:47:45;1.83;;;0.85;;
15814;SDS011;8008;50.024;8.172;2022-09-09T13:50:19;4.78;;;0.85;;
15814;SDS011;8008;50.024;8.172;2022-09-09T13:52:48;2.22;;;0.88;;
15814;SDS011;8008;50.024;8.172;2022-09-09T13:55:19;2.80;;;1.00;;
15814;SDS011;8008;50.024;8.172;2022-09-09T13:57:51;2.42;;;1.20;;
15814;SDS011;8008;50.024;8.172;2022-09-09T14:00:20;3.13;;;1.10;;
15814;SDS011;8008;50.024;8.172;2022-09-09T14:02:50;1.92;;;1.08;;
15814;SDS011;8008;50.024;8.172;2022-09-09T14:05:18;7.57;;;1.30;;
15814;SDS011;8008;50.024;8.172;2022-09-09T14:07:48;4.40;;;1.30;;
15814;SDS011;8008;50.024;8.172;2022-09-09T14:10:20;4.13;;;1.38;;
15814;SDS011;8008;50.024;8.172;2022-09-09T14:12:48;5.95;;;1.52;;
15814;SDS011;8008;50.024;8.172;2022-09-09T14:15:16;3.15;;;1.30;;
15814;SDS011;8008;50.024;8.172;2022-09-09T14:17:46;2.85;;;1.17;;
15814;SDS011;8008;50.024;8.172;2022-09-09T14:20:14;3.22;;;1.10;;
15814;SDS011;8008;50.024;8.172;2022-09-09T14:22:44;2.90;;;0.90;;
15814;SDS011;8008;50.024;8.172;2022-09-09T14:25:12;2.00;;;1.08;;
15814;SDS011;8008;50.024;8.172;2022-09-09T14:27:41;6.68;;;1.35;;
15814;SDS011;8008;50.024;8.172;2022-09-09T14:30:10;2.50;;;1.45;;
15814;SDS011;8008;50.024;8.172;2022-09-09T14:32:38;4.65;;;1.20;;
15814;SDS011;8008;50.024;8.172;2022-09-09T14:35:07;2.88;;;1.20;;
15814;SDS011;8008;50.024;8.172;2022-09-09T14:37:35;3.55;;;1.17;;
15814;SDS011;8008;50.024;8.172;2022-09-09T14:40:05;2.83;;;1.23;;
15814;SDS011;8008;50.024;8.172;2022-09-09T14:42:34;2.58;;;1.15;;
15814;SDS011;8008;50.024;8.172;2022-09-09T14:45:04;2.17;;;1.00;;
15814;SDS011;8008;50.024;8.172;2022-09-09T14:47:33;4.35;;;1.23;;
15814;SDS011;8008;50.024;8.172;2022-09-09T14:50:01;3.38;;;1.30;;
15814;SDS011;8008;50.024;8.172;2022-09-09T14:52:31;1.75;;;1.00;;
15814;SDS011;8008;50.024;8.172;2022-09-09T14:54:59;4.35;;;1.17;;
15814;SDS011;8008;50.024;8.172;2022-09-09T14:57:27;2.75;;;1.00;;
15814;SDS011;8008;50.024;8.172;2022-09-09T14:59:55;1.90;;;1.02;;
15814;SDS011;8008;50.024;8.172;2022-09-09T15:02:24;3.50;;;1.02;;
15814;SDS011;8008;50.024;8.172;2022-09-09T15:04:52;1.48;;;0.90;;
15814;SDS011;8008;50.024;8.172;2022-09-09T15:07:23;1.55;;;1.15;;
15814;SDS011;8008;50.024;8.172;2022-09-09T15:09:51;2.08;;;1.00;;
15814;SDS011;8008;50.024;8.172;2022-09-09T15:12:20;3.35;;;0.90;;
15814;SDS011;8008;50.024;8.172;2022-09-09T15:14:48;2.13;;;0.90;;
15814;SDS011;8008;50.024;8.172;2022-09-09T15:17:16;2.63;;;1.13;;
15814;SDS011;8008;50.024;8.172;2022-09-09T15:19:45;4.93;;;0.95;;
15814;SDS011;8008;50.024;8.172;2022-09-09T15:22:13;2.45;;;0.90;;
15814;SDS011;8008;50.024;8.172;2022-09-09T15:24:41;1.52;;;0.90;;
15814;SDS011;8008;50.024;8.172;2022-09-09T15:27:09;3.38;;;1.25;;
15814;SDS011;8008;50.024;8.172;2022-09-09T15:29:37;4.80;;;1.00;;
15814;SDS011;8008;50.024;8.172;2022-09-09T15:32:05;1.50;;;0.95;;
15814;SDS011;8008;50.024;8.172;2022-09-09T15:34:33;3.13;;;1.10;;
15814;SDS011;8008;50.024;8.172;2022-09-09T15:37:02;2.30;;;1.00;;
15814;SDS011;8008;50.024;8.172;2022-09-09T15:39:30;2.00;;;1.08;;
15814;SDS011;8008;50.024;8.172;2022-09-09T15:42:04;2.10;;;0.98;;
15814;SDS011;8008;50.024;8.172;2022-09-09T15:44:40;1.80;;;0.98;;
15814;SDS011;8008;50.024;8.172;2022-09-09T15:47:10;3.25;;;1.17;;
15814;SDS011;8008;50.024;8.172;2022-09-09T15:49:39;2.30;;;1.25;;
15814;SDS011;8008;50.024;8.172;2022-09-09T15:52:09;4.07;;;1.23;;
15814;SDS011;8008;50.024;8.172;2022-09-09T15:54:38;2.13;;;0.90;;
15814;SDS011;8008;50.024;8.172;2022-09-09T15:57:06;1.35;;;1.20;;
15814;SDS011;8008;50.024;8.172;2022-09-09T15:59:38;3.40;;;1.00;;
15814;SDS011;8008;50.024;8.172;2022-09-09T16:02:06;1.50;;;1.00;;
15814;SDS011;8008;50.024;8.172;2022-09-09T16:04:34;1.58;;;1.15;;
15814;SDS011;8008;50.024;8.172;2022-09-09T16:07:03;2.05;;;1.10;;
15814;SDS011;8008;50.024;8.172;2022-09-09T16:09:33;1.77;;;1.17;;
15814;SDS011;8008;50.024;8.172;2022-09-09T16:12:03;1.23;;;0.90;;
15814;SDS011;8008;50.024;8.172;2022-09-09T16:14:34;3.63;;;1.10;;
15814;SDS011;8008;50.024;8.172;2022-09-09T16:17:02;1.20;;;0.93;;
15814;SDS011;8008;50.024;8.172;2022-09-09T16:19:31;1.83;;;1.00;;
15814;SDS011;8008;50.024;8.172;2022-09-09T16:22:00;1.30;;;0.75;;
15814;SDS011;8008;50.024;8.172;2022-09-09T16:24:28;1.52;;;0.85;;
15814;SDS011;8008;50.024;8.172;2022-09-09T16:26:58;2.92;;;0.90;;
15814;SDS011;8008;50.024;8.172;2022-09-09T16:29:26;2.90;;;0.90;;
15814;SDS011;8008;50.024;8.172;2022-09-09T16:31:54;3.35;;;1.20;;
15814;SDS011;8008;50.024;8.172;2022-09-09T16:34:28;2.30;;;0.90;;
15814;SDS011;8008;50.024;8.172;2022-09-09T16:36:55;1.73;;;0.75;;
15814;SDS011;8008;50.024;8.172;2022-09-09T16:39:23;4.72;;;0.80;;
15814;SDS011;8008;50.024;8.172;2022-09-09T16:41:51;2.53;;;0.88;;
15814;SDS011;8008;50.024;8.172;2022-09-09T16:44:20;1.58;;;1.00;;
15814;SDS011;8008;50.024;8.172;2022-09-09T16:46:48;2.63;;;0.70;;
15814;SDS011;8008;50.024;8.172;2022-09-09T16:49:25;4.90;;;1.30;;
15814;SDS011;8008;50.024;8.172;2022-09-09T16:51:56;3.85;;;0.98;;
15814;SDS011;8008;50.024;8.172;2022-09-09T16:54:25;2.58;;;1.10;;
15814;SDS011;8008;50.024;8.172;2022-09-09T16:56:55;1.10;;;0.90;;
15814;SDS011;8008;50.024;8.172;2022-09-09T16:59:24;3.30;;;1.10;;
15814;SDS011;8008;50.024;8.172;2022-09-09T17:01:53;3.78;;;0.90;;
15814;SDS011;8008;50.024;8.172;2022-09-09T17:04:22;3.17;;;1.30;;
15814;SDS011;8008;50.024;8.172;2022-09-09T17:06:53;3.13;;;1.40;;
15814;SDS011;8008;50.024;8.172;2022-09-09T17:09:22;3.10;;;1.00;;
15814;SDS011;8008;50.024;8.172;2022-09-09T17:11:50;4.07;;;1.40;;
15814;SDS011;8008;50.024;8.172;2022-09-09T17:14:19;1.77;;;1.00;;
15814;SDS011;8008;50.024;8.172;2022-09-09T17:16:51;4.28;;;1.17;;
15814;SDS011;8008;50.024;8.172;2022-09-09T17:19:19;4.75;;;1.23;;
15814;SDS011;8008;50.024;8.172;2022-09-09T17:21:47;2.65;;;1.10;;
15814;SDS011;8008;50.024;8.172;2022-09-09T17:24:35;3.17;;;1.17;;
15814;SDS011;8008;50.024;8.172;2022-09-09T17:27:04;4.47;;;1.23;;
15814;SDS011;8008;50.024;8.172;2022-09-09T17:29:32;2.85;;;1.17;;
15814;SDS011;8008;50.024;8.172;2022-09-09T17:32:03;2.53;;;1.30;;
15814;SDS011;8008;50.024;8.172;2022-09-09T17:34:33;2.90;;;1.30;;
15814;SDS011;8008;50.024;8.172;2022-09-09T17:37:01;7.65;;;1.30;;
15814;SDS011;8008;50.024;8.172;2022-09-09T17:39:30;3.33;;;1.33;;
15814;SDS011;8008;50.024;8.172;2022-09-09T17:41:58;2.40;;;1.30;;
15814;SDS011;8008;50.024;8.172;2022-09-09T17:44:26;3.22;;;1.33;;
15814;SDS011;8008;50.024;8.172;2022-09-09T17:46:55;4.70;;;1.40;;
15814;SDS011;8008;50.024;8.172;2022-09-09T17:49:24;6.22;;;1.50;;
15814;SDS011;8008;50.024;8.172;2022-09-09T17:51:52;2.30;;;1.45;;
15814;SDS011;8008;50.024;8.172;2022-09-09T17:54:20;2.78;;;1.40;;
15814;SDS011;8008;50.024;8.172;2022-09-09T17:56:48;3.95;;;2.13;;
15814;SDS011;8008;50.024;8.172;2022-09-09T17:59:17;5.75;;;2.53;;
15814;SDS011;8008;50.024;8.172;2022-09-09T18:01:47;5.28;;;1.98;;
15814;SDS011;8008;50.024;8.172;2022-09-09T18:04:16;4.15;;;1.90;;
15814;SDS011;8008;50.024;8.172;2022-09-09T18:06:46;4.05;;;1.92;;
15814;SDS011;8008;50.024;8.172;2022-09-09T18:09:17;4.85;;;1.85;;
15814;SDS011;8008;50.024;8.172;2022-09-09T18:11:49;3.25;;;1.40;;
15814;SDS011;8008;50.024;8.172;2022-09-09T18:14:19;1.77;;;1.30;;
15814;SDS011;8008;50.024;8.172;2022-09-09T18:16:49;2.35;;;1.20;;
15814;SDS011;8008;50.024;8.172;2022-09-09T18:19:19;3.60;;;1.48;;
15814;SDS011;8008;50.024;8.172;2022-09-09T18:21:49;10.65;;;1.60;;
15814;SDS011;8008;50.024;8.172;2022-09-09T18:24:18;8.18;;;1.92;;
15814;SDS011;8008;50.024;8.172;2022-09-09T18:26:48;8.82;;;1.52;;
15814;SDS011;8008;50.024;8.172;2022-09-09T18:29:17;3.28;;;1.60;;
15814;SDS011;8008;50.024;8.172;2022-09-09T18:31:47;10.13;;;1.40;;
15814;SDS011;8008;50.024;8.172;2022-09-09T18:34:16;5.13;;;1.20;;
15814;SDS011;8008;50.024;8.172;2022-09-09T18:36:45;6.50;;;1.40;;
15814;SDS011;8008;50.024;8.172;2022-09-09T18:39:16;6.95;;;1.48;;